Pensacola Regional Airport
KPNS : now visible

Airfield :











YOU CAN JOIN US ON...

 
LOGIN :

Register | Disclaimer

   EN    FR    IT 

 









Legend :    VFR   Marginal VFR   IFR   Intensive IFR   Very Intensive IFR
Visi :
Ceiling :
>= 8 km
>= 3000ft
5 to 8 km
1000 to 3000 ft
1500m to 5 km
500 to 1000 ft
800 to 1500m
200 to 500 ft
< 800m
< 200 ft
Symbols :   Thunderstorms  Fog  Heavy snow  Heavy precipitations  Wind > 20 kt






- Airport Elevation : 121 ft
- IATA code : PNS


KPNS - Pensacola Regional

CURRENT METAR :
  • 191653Z 00000KT 10SM FEW027 FEW034 31/24 A3002 RMK AO2 LTG DSNT E AND S SLP168 T03060244

EXPIRED METARs :
  • 191553Z 33004KT 10SM SCT024 29/24 A3003 RMK AO2 LTG DSNT SW SLP170 T02940239
  • 191453Z 23003KT 10SM CLR 29/24 A3001 RMK AO2 RAB23E33 SLP164 P0000 60000 T02890239 53016

TAF KPNS
Valid from the 19 at 12:00 until the 20 at 12:00 UTC


191120Z 1912/2012 00000KT P6SM VCSH SCT023 BKN090
TEMPO 1913/1917 5SM -TSRA BKN025CB
FM191700 12005KT P6SM VCTS SCT035CB BKN060
TEMPO 1917/1921 5SM -TSRA BKN030CB
FM192100 18006KT P6SM VCTS SCT035CB BKN130
PROB30 1921/2003 5SM TSRA BKN030CB
KZJX FIR / North America



MET'MAP, your aeronautical weather chart ! - Copyright ORBIFLY December 2007 - Disclaimer

ORBIFLY MET'MAP TEAM :

Programming & Development : Alexandra Zaïnal
Original concept : Baudouin d'Aumeries
Technical & hardware support : Manuel Goepfert
Assistance : Marc-Olivier Méhu




SOURCES & CREDITS :

   NOAA       Earth
Advisory